sensor_id;sensor_type;location;lat;lon;timestamp;temperature;humidity
21348;DHT22;66030;53.582;9.746;2024-01-27T00:01:13;20.80;58.20
21348;DHT22;66030;53.582;9.746;2024-01-27T00:03:41;20.80;58.20
21348;DHT22;66030;53.582;9.746;2024-01-27T00:06:09;20.80;58.20
21348;DHT22;66030;53.582;9.746;2024-01-27T00:08:37;20.80;58.20
21348;DHT22;66030;53.582;9.746;2024-01-27T00:11:05;20.70;58.30
21348;DHT22;66030;53.582;9.746;2024-01-27T00:13:33;20.70;58.30
21348;DHT22;66030;53.582;9.746;2024-01-27T00:16:00;20.70;58.40
21348;DHT22;66030;53.582;9.746;2024-01-27T00:18:29;20.70;58.30
21348;DHT22;66030;53.582;9.746;2024-01-27T00:20:57;20.70;58.30
21348;DHT22;66030;53.582;9.746;2024-01-27T00:23:25;20.70;58.30
21348;DHT22;66030;53.582;9.746;2024-01-27T00:25:53;20.70;58.30
21348;DHT22;66030;53.582;9.746;2024-01-27T00:28:21;20.70;58.30
21348;DHT22;66030;53.582;9.746;2024-01-27T00:30:49;20.70;58.30
21348;DHT22;66030;53.582;9.746;2024-01-27T00:33:17;20.70;58.20
21348;DHT22;66030;53.582;9.746;2024-01-27T00:35:46;20.60;58.30
21348;DHT22;66030;53.582;9.746;2024-01-27T00:38:14;20.60;58.30
21348;DHT22;66030;53.582;9.746;2024-01-27T00:40:42;20.60;58.30
21348;DHT22;66030;53.582;9.746;2024-01-27T00:43:10;20.60;58.30
21348;DHT22;66030;53.582;9.746;2024-01-27T00:45:38;20.60;58.30
21348;DHT22;66030;53.582;9.746;2024-01-27T00:48:06;20.60;58.20
21348;DHT22;66030;53.582;9.746;2024-01-27T00:50:35;20.60;58.20
21348;DHT22;66030;53.582;9.746;2024-01-27T00:53:04;20.60;58.20
21348;DHT22;66030;53.582;9.746;2024-01-27T00:55:32;20.60;58.20
21348;DHT22;66030;53.582;9.746;2024-01-27T00:57:59;20.50;58.30
21348;DHT22;66030;53.582;9.746;2024-01-27T01:00:28;20.50;58.20
21348;DHT22;66030;53.582;9.746;2024-01-27T01:02:55;20.50;58.30
21348;DHT22;66030;53.582;9.746;2024-01-27T01:05:23;20.50;58.20
21348;DHT22;66030;53.582;9.746;2024-01-27T01:07:51;20.50;58.20
21348;DHT22;66030;53.582;9.746;2024-01-27T01:10:20;20.50;58.30
21348;DHT22;66030;53.582;9.746;2024-01-27T01:12:48;20.50;58.20
21348;DHT22;66030;53.582;9.746;2024-01-27T01:15:16;20.50;58.20
21348;DHT22;66030;53.582;9.746;2024-01-27T01:17:44;20.50;58.20
21348;DHT22;66030;53.582;9.746;2024-01-27T01:20:12;20.40;58.10
21348;DHT22;66030;53.582;9.746;2024-01-27T01:22:40;20.40;58.10
21348;DHT22;66030;53.582;9.746;2024-01-27T01:25:08;20.40;58.10
21348;DHT22;66030;53.582;9.746;2024-01-27T01:27:38;20.40;58.20
21348;DHT22;66030;53.582;9.746;2024-01-27T01:30:06;20.40;58.20
21348;DHT22;66030;53.582;9.746;2024-01-27T01:32:36;20.40;58.10
21348;DHT22;66030;53.582;9.746;2024-01-27T01:35:04;20.40;58.10
21348;DHT22;66030;53.582;9.746;2024-01-27T01:37:32;20.30;58.10
21348;DHT22;66030;53.582;9.746;2024-01-27T01:40:00;20.30;58.10
21348;DHT22;66030;53.582;9.746;2024-01-27T01:42:29;20.30;58.10
21348;DHT22;66030;53.582;9.746;2024-01-27T01:44:59;20.30;58.00
21348;DHT22;66030;53.582;9.746;2024-01-27T01:47:27;20.30;58.10
21348;DHT22;66030;53.582;9.746;2024-01-27T01:49:55;20.30;58.00
21348;DHT22;66030;53.582;9.746;2024-01-27T01:52:24;20.30;58.00
21348;DHT22;66030;53.582;9.746;2024-01-27T01:54:52;20.20;58.10
21348;DHT22;66030;53.582;9.746;2024-01-27T01:57:19;20.20;58.00
21348;DHT22;66030;53.582;9.746;2024-01-27T01:59:47;20.20;58.00
21348;DHT22;66030;53.582;9.746;2024-01-27T02:02:17;20.20;58.10
21348;DHT22;66030;53.582;9.746;2024-01-27T02:04:45;20.20;58.00
21348;DHT22;66030;53.582;9.746;2024-01-27T02:07:14;20.20;57.90
21348;DHT22;66030;53.582;9.746;2024-01-27T02:09:42;20.20;58.00
21348;DHT22;66030;53.582;9.746;2024-01-27T02:12:10;20.20;58.00
21348;DHT22;66030;53.582;9.746;2024-01-27T02:14:38;20.20;57.90
21348;DHT22;66030;53.582;9.746;2024-01-27T02:17:06;20.10;58.00
21348;DHT22;66030;53.582;9.746;2024-01-27T02:19:35;20.10;57.90
21348;DHT22;66030;53.582;9.746;2024-01-27T02:22:04;20.10;58.00
21348;DHT22;66030;53.582;9.746;2024-01-27T02:24:33;20.10;58.00
21348;DHT22;66030;53.582;9.746;2024-01-27T02:27:01;20.10;58.00
21348;DHT22;66030;53.582;9.746;2024-01-27T02:29:28;20.10;57.90
21348;DHT22;66030;53.582;9.746;2024-01-27T02:31:56;20.10;57.90
21348;DHT22;66030;53.582;9.746;2024-01-27T02:34:24;20.10;57.80
21348;DHT22;66030;53.582;9.746;2024-01-27T02:36:52;20.10;57.90
21348;DHT22;66030;53.582;9.746;2024-01-27T02:39:20;20.10;57.80
21348;DHT22;66030;53.582;9.746;2024-01-27T02:41:49;20.10;57.90
21348;DHT22;66030;53.582;9.746;2024-01-27T02:44:17;20.00;57.90
21348;DHT22;66030;53.582;9.746;2024-01-27T02:46:45;20.00;57.80
21348;DHT22;66030;53.582;9.746;2024-01-27T02:49:13;20.00;57.80
21348;DHT22;66030;53.582;9.746;2024-01-27T02:51:41;20.00;57.80
21348;DHT22;66030;53.582;9.746;2024-01-27T02:54:09;20.00;57.80
21348;DHT22;66030;53.582;9.746;2024-01-27T02:56:37;20.00;57.80
21348;DHT22;66030;53.582;9.746;2024-01-27T02:59:06;20.00;57.70
21348;DHT22;66030;53.582;9.746;2024-01-27T03:01:34;20.00;57.70
21348;DHT22;66030;53.582;9.746;2024-01-27T03:04:02;20.00;57.70
21348;DHT22;66030;53.582;9.746;2024-01-27T03:06:30;19.90;57.70
21348;DHT22;66030;53.582;9.746;2024-01-27T03:08:58;19.90;57.70
21348;DHT22;66030;53.582;9.746;2024-01-27T03:11:26;19.90;57.80
21348;DHT22;66030;53.582;9.746;2024-01-27T03:13:54;19.90;57.70
21348;DHT22;66030;53.582;9.746;2024-01-27T03:16:23;19.90;57.70
21348;DHT22;66030;53.582;9.746;2024-01-27T03:18:51;19.90;57.70
21348;DHT22;66030;53.582;9.746;2024-01-27T03:21:19;19.90;57.60
21348;DHT22;66030;53.582;9.746;2024-01-27T03:23:46;19.90;57.60
21348;DHT22;66030;53.582;9.746;2024-01-27T03:26:14;19.90;57.60
21348;DHT22;66030;53.582;9.746;2024-01-27T03:28:42;19.90;57.60
21348;DHT22;66030;53.582;9.746;2024-01-27T03:31:10;19.90;57.50
21348;DHT22;66030;53.582;9.746;2024-01-27T03:33:39;19.90;57.40
21348;DHT22;66030;53.582;9.746;2024-01-27T03:36:09;19.90;57.50
21348;DHT22;66030;53.582;9.746;2024-01-27T03:38:38;19.90;57.40
21348;DHT22;66030;53.582;9.746;2024-01-27T03:41:06;19.90;57.40
21348;DHT22;66030;53.582;9.746;2024-01-27T03:43:34;19.90;57.40
21348;DHT22;66030;53.582;9.746;2024-01-27T03:46:02;19.80;57.40
21348;DHT22;66030;53.582;9.746;2024-01-27T03:48:30;19.80;57.40
21348;DHT22;66030;53.582;9.746;2024-01-27T03:51:00;19.80;57.50
21348;DHT22;66030;53.582;9.746;2024-01-27T03:53:27;19.80;57.50
21348;DHT22;66030;53.582;9.746;2024-01-27T03:55:56;19.80;57.50
21348;DHT22;66030;53.582;9.746;2024-01-27T03:58:26;19.80;57.50
21348;DHT22;66030;53.582;9.746;2024-01-27T04:00:54;19.80;57.40
21348;DHT22;66030;53.582;9.746;2024-01-27T04:03:22;19.80;57.40
21348;DHT22;66030;53.582;9.746;2024-01-27T04:05:50;19.80;57.40
21348;DHT22;66030;53.582;9.746;2024-01-27T04:08:19;19.80;57.40
21348;DHT22;66030;53.582;9.746;2024-01-27T04:10:47;19.80;57.30
21348;DHT22;66030;53.582;9.746;2024-01-27T04:13:15;19.80;57.30
21348;DHT22;66030;53.582;9.746;2024-01-27T04:15:42;19.80;57.50
21348;DHT22;66030;53.582;9.746;2024-01-27T04:18:10;19.80;57.40
21348;DHT22;66030;53.582;9.746;2024-01-27T04:20:39;19.70;57.40
21348;DHT22;66030;53.582;9.746;2024-01-27T04:23:07;19.70;57.40
21348;DHT22;66030;53.582;9.746;2024-01-27T04:25:36;19.70;57.50
21348;DHT22;66030;53.582;9.746;2024-01-27T04:28:04;19.70;57.50
21348;DHT22;66030;53.582;9.746;2024-01-27T04:30:32;19.70;57.50
21348;DHT22;66030;53.582;9.746;2024-01-27T04:33:00;19.70;57.50
21348;DHT22;66030;53.582;9.746;2024-01-27T04:35:29;19.70;57.50
21348;DHT22;66030;53.582;9.746;2024-01-27T04:37:57;19.70;57.50
21348;DHT22;66030;53.582;9.746;2024-01-27T04:40:25;19.70;57.50
21348;DHT22;66030;53.582;9.746;2024-01-27T04:42:55;19.70;57.60
21348;DHT22;66030;53.582;9.746;2024-01-27T04:45:23;19.70;57.50
21348;DHT22;66030;53.582;9.746;2024-01-27T04:47:51;19.70;57.50
21348;DHT22;66030;53.582;9.746;2024-01-27T04:50:20;19.60;57.50
21348;DHT22;66030;53.582;9.746;2024-01-27T04:52:48;19.60;57.50
21348;DHT22;66030;53.582;9.746;2024-01-27T04:55:16;19.60;57.50
21348;DHT22;66030;53.582;9.746;2024-01-27T04:57:43;19.60;57.60
21348;DHT22;66030;53.582;9.746;2024-01-27T05:00:14;19.60;57.60
21348;DHT22;66030;53.582;9.746;2024-01-27T05:02:42;19.60;57.60
21348;DHT22;66030;53.582;9.746;2024-01-27T05:05:10;19.60;57.60
21348;DHT22;66030;53.582;9.746;2024-01-27T05:07:38;19.60;57.70
21348;DHT22;66030;53.582;9.746;2024-01-27T05:10:09;19.60;57.70
21348;DHT22;66030;53.582;9.746;2024-01-27T05:12:37;19.60;57.60
21348;DHT22;66030;53.582;9.746;2024-01-27T05:15:06;19.60;57.60
21348;DHT22;66030;53.582;9.746;2024-01-27T05:17:36;19.60;57.70
21348;DHT22;66030;53.582;9.746;2024-01-27T05:20:05;19.60;57.60
21348;DHT22;66030;53.582;9.746;2024-01-27T05:22:34;19.50;57.60
21348;DHT22;66030;53.582;9.746;2024-01-27T05:25:02;19.60;57.70
21348;DHT22;66030;53.582;9.746;2024-01-27T05:27:31;19.60;57.70
21348;DHT22;66030;53.582;9.746;2024-01-27T05:29:59;19.60;57.70
21348;DHT22;66030;53.582;9.746;2024-01-27T05:32:27;19.50;57.70
21348;DHT22;66030;53.582;9.746;2024-01-27T05:34:56;19.60;57.60
21348;DHT22;66030;53.582;9.746;2024-01-27T05:37:26;19.60;57.70
21348;DHT22;66030;53.582;9.746;2024-01-27T05:39:56;19.60;57.70
21348;DHT22;66030;53.582;9.746;2024-01-27T05:42:24;19.70;57.80
21348;DHT22;66030;53.582;9.746;2024-01-27T05:44:52;19.80;57.80
21348;DHT22;66030;53.582;9.746;2024-01-27T05:47:20;19.90;57.60
21348;DHT22;66030;53.582;9.746;2024-01-27T05:49:48;19.90;57.60
21348;DHT22;66030;53.582;9.746;2024-01-27T05:52:17;20.00;57.50
21348;DHT22;66030;53.582;9.746;2024-01-27T05:54:51;20.10;57.50
21348;DHT22;66030;53.582;9.746;2024-01-27T05:57:20;20.10;57.40
21348;DHT22;66030;53.582;9.746;2024-01-27T05:59:48;20.10;57.30
21348;DHT22;66030;53.582;9.746;2024-01-27T06:02:16;20.20;57.00
21348;DHT22;66030;53.582;9.746;2024-01-27T06:04:45;20.30;57.10
21348;DHT22;66030;53.582;9.746;2024-01-27T06:07:13;20.30;57.00
21348;DHT22;66030;53.582;9.746;2024-01-27T06:09:42;20.30;57.00
21348;DHT22;66030;53.582;9.746;2024-01-27T06:12:10;20.40;56.80
21348;DHT22;66030;53.582;9.746;2024-01-27T06:14:38;20.40;56.80
21348;DHT22;66030;53.582;9.746;2024-01-27T06:17:06;20.40;56.80
21348;DHT22;66030;53.582;9.746;2024-01-27T06:19:34;20.40;56.50
21348;DHT22;66030;53.582;9.746;2024-01-27T06:22:02;20.50;56.50
21348;DHT22;66030;53.582;9.746;2024-01-27T06:24:32;20.50;56.40
21348;DHT22;66030;53.582;9.746;2024-01-27T06:27:02;20.60;56.40
21348;DHT22;66030;53.582;9.746;2024-01-27T06:29:30;20.60;56.40
21348;DHT22;66030;53.582;9.746;2024-01-27T06:31:57;20.60;56.40
21348;DHT22;66030;53.582;9.746;2024-01-27T06:34:25;20.60;56.50
21348;DHT22;66030;53.582;9.746;2024-01-27T06:36:53;20.70;56.00
21348;DHT22;66030;53.582;9.746;2024-01-27T06:39:21;20.70;56.10
21348;DHT22;66030;53.582;9.746;2024-01-27T06:41:49;20.70;56.20
21348;DHT22;66030;53.582;9.746;2024-01-27T06:44:18;20.70;56.20
21348;DHT22;66030;53.582;9.746;2024-01-27T06:46:46;20.60;56.20
21348;DHT22;66030;53.582;9.746;2024-01-27T06:49:16;20.60;56.40
21348;DHT22;66030;53.582;9.746;2024-01-27T06:51:44;20.60;56.20
21348;DHT22;66030;53.582;9.746;2024-01-27T06:54:12;20.60;56.30
21348;DHT22;66030;53.582;9.746;2024-01-27T06:56:40;20.60;56.20
21348;DHT22;66030;53.582;9.746;2024-01-27T06:59:08;20.50;56.10
21348;DHT22;66030;53.582;9.746;2024-01-27T07:01:37;20.60;56.20
21348;DHT22;66030;53.582;9.746;2024-01-27T07:04:05;20.50;56.10
21348;DHT22;66030;53.582;9.746;2024-01-27T07:06:33;20.50;56.10
21348;DHT22;66030;53.582;9.746;2024-01-27T07:09:01;20.50;56.20
21348;DHT22;66030;53.582;9.746;2024-01-27T07:11:29;20.50;56.20
21348;DHT22;66030;53.582;9.746;2024-01-27T07:13:57;20.50;56.30
21348;DHT22;66030;53.582;9.746;2024-01-27T07:16:25;20.50;56.30
21348;DHT22;66030;53.582;9.746;2024-01-27T07:18:54;20.60;56.40
21348;DHT22;66030;53.582;9.746;2024-01-27T07:21:22;20.60;56.30
21348;DHT22;66030;53.582;9.746;2024-01-27T07:23:50;20.60;56.60
21348;DHT22;66030;53.582;9.746;2024-01-27T07:26:19;20.70;57.10
21348;DHT22;66030;53.582;9.746;2024-01-27T07:28:47;20.70;57.50
21348;DHT22;66030;53.582;9.746;2024-01-27T07:31:15;20.70;57.50
21348;DHT22;66030;53.582;9.746;2024-01-27T07:33:44;20.80;57.60
21348;DHT22;66030;53.582;9.746;2024-01-27T07:36:13;20.80;57.40
21348;DHT22;66030;53.582;9.746;2024-01-27T07:38:41;20.80;57.40
21348;DHT22;66030;53.582;9.746;2024-01-27T07:41:09;20.80;57.60
21348;DHT22;66030;53.582;9.746;2024-01-27T07:43:37;20.80;57.60
21348;DHT22;66030;53.582;9.746;2024-01-27T07:46:05;20.90;57.70
21348;DHT22;66030;53.582;9.746;2024-01-27T07:48:33;20.90;58.00
21348;DHT22;66030;53.582;9.746;2024-01-27T07:51:01;20.90;57.90
21348;DHT22;66030;53.582;9.746;2024-01-27T07:53:31;20.90;57.80
21348;DHT22;66030;53.582;9.746;2024-01-27T07:55:58;20.80;57.70
21348;DHT22;66030;53.582;9.746;2024-01-27T07:58:26;20.80;57.80
21348;DHT22;66030;53.582;9.746;2024-01-27T08:00:54;20.80;57.70
21348;DHT22;66030;53.582;9.746;2024-01-27T08:03:22;20.80;57.80
21348;DHT22;66030;53.582;9.746;2024-01-27T08:05:50;20.80;58.00
21348;DHT22;66030;53.582;9.746;2024-01-27T08:08:18;20.80;58.00
21348;DHT22;66030;53.582;9.746;2024-01-27T08:10:47;20.80;58.00
21348;DHT22;66030;53.582;9.746;2024-01-27T08:13:15;20.80;58.00
21348;DHT22;66030;53.582;9.746;2024-01-27T08:15:43;20.70;58.00
21348;DHT22;66030;53.582;9.746;2024-01-27T08:18:11;20.70;58.00
21348;DHT22;66030;53.582;9.746;2024-01-27T08:20:39;20.70;58.00
21348;DHT22;66030;53.582;9.746;2024-01-27T08:23:07;20.70;57.70
21348;DHT22;66030;53.582;9.746;2024-01-27T08:25:36;20.50;56.80
21348;DHT22;66030;53.582;9.746;2024-01-27T08:28:06;20.50;57.50
21348;DHT22;66030;53.582;9.746;2024-01-27T08:30:36;20.50;57.60
21348;DHT22;66030;53.582;9.746;2024-01-27T08:33:07;20.60;57.40
21348;DHT22;66030;53.582;9.746;2024-01-27T08:35:36;20.60;57.60
21348;DHT22;66030;53.582;9.746;2024-01-27T08:38:04;20.50;56.40
21348;DHT22;66030;53.582;9.746;2024-01-27T08:40:33;20.40;57.10
21348;DHT22;66030;53.582;9.746;2024-01-27T08:43:01;20.50;57.10
21348;DHT22;66030;53.582;9.746;2024-01-27T08:45:30;20.50;57.10
21348;DHT22;66030;53.582;9.746;2024-01-27T08:47:58;20.50;56.80
21348;DHT22;66030;53.582;9.746;2024-01-27T08:50:27;20.50;56.90
21348;DHT22;66030;53.582;9.746;2024-01-27T08:52:56;20.60;56.80
21348;DHT22;66030;53.582;9.746;2024-01-27T08:55:25;20.60;56.60
21348;DHT22;66030;53.582;9.746;2024-01-27T08:57:53;20.60;56.80
21348;DHT22;66030;53.582;9.746;2024-01-27T09:00:21;20.70;56.80
21348;DHT22;66030;53.582;9.746;2024-01-27T09:02:51;20.70;56.70
21348;DHT22;66030;53.582;9.746;2024-01-27T09:05:19;20.70;56.70
21348;DHT22;66030;53.582;9.746;2024-01-27T09:07:48;20.70;56.70
21348;DHT22;66030;53.582;9.746;2024-01-27T09:10:16;20.70;56.70
21348;DHT22;66030;53.582;9.746;2024-01-27T09:12:44;20.70;56.80
21348;DHT22;66030;53.582;9.746;2024-01-27T09:15:12;20.70;56.80
21348;DHT22;66030;53.582;9.746;2024-01-27T09:17:40;20.70;56.90
21348;DHT22;66030;53.582;9.746;2024-01-27T09:20:11;20.70;56.80
21348;DHT22;66030;53.582;9.746;2024-01-27T09:22:39;20.70;56.90
21348;DHT22;66030;53.582;9.746;2024-01-27T09:25:08;20.60;55.70
21348;DHT22;66030;53.582;9.746;2024-01-27T09:27:36;20.20;54.60
21348;DHT22;66030;53.582;9.746;2024-01-27T09:30:06;20.30;56.50
21348;DHT22;66030;53.582;9.746;2024-01-27T09:32:34;20.30;56.90
21348;DHT22;66030;53.582;9.746;2024-01-27T09:35:03;20.40;57.00
21348;DHT22;66030;53.582;9.746;2024-01-27T09:37:33;20.50;57.10
21348;DHT22;66030;53.582;9.746;2024-01-27T09:40:02;20.50;57.30
21348;DHT22;66030;53.582;9.746;2024-01-27T09:42:33;20.50;57.20
21348;DHT22;66030;53.582;9.746;2024-01-27T09:45:03;20.60;57.30
21348;DHT22;66030;53.582;9.746;2024-01-27T09:47:31;20.60;57.70
21348;DHT22;66030;53.582;9.746;2024-01-27T09:50:01;20.70;58.90
21348;DHT22;66030;53.582;9.746;2024-01-27T09:52:29;20.70;59.90
21348;DHT22;66030;53.582;9.746;2024-01-27T09:54:59;20.80;60.30
21348;DHT22;66030;53.582;9.746;2024-01-27T09:57:27;20.80;60.50
21348;DHT22;66030;53.582;9.746;2024-01-27T09:59:56;20.90;60.60
21348;DHT22;66030;53.582;9.746;2024-01-27T10:02:25;20.90;60.70
21348;DHT22;66030;53.582;9.746;2024-01-27T10:04:58;20.90;60.70
21348;DHT22;66030;53.582;9.746;2024-01-27T10:07:27;20.90;60.90
21348;DHT22;66030;53.582;9.746;2024-01-27T10:09:55;21.00;60.70
21348;DHT22;66030;53.582;9.746;2024-01-27T10:12:26;21.00;61.10
21348;DHT22;66030;53.582;9.746;2024-01-27T10:14:56;21.00;60.90
21348;DHT22;66030;53.582;9.746;2024-01-27T10:17:25;21.00;60.10
21348;DHT22;66030;53.582;9.746;2024-01-27T10:19:59;21.00;60.00
21348;DHT22;66030;53.582;9.746;2024-01-27T10:22:28;21.00;60.00
21348;DHT22;66030;53.582;9.746;2024-01-27T10:24:56;21.00;60.00
21348;DHT22;66030;53.582;9.746;2024-01-27T10:27:25;21.00;60.20
21348;DHT22;66030;53.582;9.746;2024-01-27T10:29:53;21.00;60.10
21348;DHT22;66030;53.582;9.746;2024-01-27T10:32:22;21.10;60.30
21348;DHT22;66030;53.582;9.746;2024-01-27T10:35:00;21.00;60.20
21348;DHT22;66030;53.582;9.746;2024-01-27T10:37:28;21.10;60.20
21348;DHT22;66030;53.582;9.746;2024-01-27T10:40:00;21.10;60.20
21348;DHT22;66030;53.582;9.746;2024-01-27T10:42:31;21.10;60.20
21348;DHT22;66030;53.582;9.746;2024-01-27T10:44:59;21.20;60.10
21348;DHT22;66030;53.582;9.746;2024-01-27T10:47:28;21.30;60.00
21348;DHT22;66030;53.582;9.746;2024-01-27T10:49:59;21.30;59.90
21348;DHT22;66030;53.582;9.746;2024-01-27T10:52:31;21.40;59.70
21348;DHT22;66030;53.582;9.746;2024-01-27T10:55:01;21.50;59.60
21348;DHT22;66030;53.582;9.746;2024-01-27T10:57:37;21.60;59.30
21348;DHT22;66030;53.582;9.746;2024-01-27T11:00:06;21.70;58.80
21348;DHT22;66030;53.582;9.746;2024-01-27T11:02:36;21.80;58.60
21348;DHT22;66030;53.582;9.746;2024-01-27T11:05:10;21.80;58.40
21348;DHT22;66030;53.582;9.746;2024-01-27T11:07:39;21.80;58.20
21348;DHT22;66030;53.582;9.746;2024-01-27T11:10:09;21.90;58.00
21348;DHT22;66030;53.582;9.746;2024-01-27T11:12:39;22.00;57.90
21348;DHT22;66030;53.582;9.746;2024-01-27T11:15:07;21.90;57.70
21348;DHT22;66030;53.582;9.746;2024-01-27T11:17:39;21.90;57.70
21348;DHT22;66030;53.582;9.746;2024-01-27T11:20:08;21.90;57.60
21348;DHT22;66030;53.582;9.746;2024-01-27T11:22:38;21.90;57.50
21348;DHT22;66030;53.582;9.746;2024-01-27T11:25:14;22.00;57.50
21348;DHT22;66030;53.582;9.746;2024-01-27T11:27:45;22.00;57.40
21348;DHT22;66030;53.582;9.746;2024-01-27T11:30:25;22.00;57.20
21348;DHT22;66030;53.582;9.746;2024-01-27T11:32:55;22.10;56.80
21348;DHT22;66030;53.582;9.746;2024-01-27T11:35:24;22.10;56.70
21348;DHT22;66030;53.582;9.746;2024-01-27T11:37:52;22.10;56.40
21348;DHT22;66030;53.582;9.746;2024-01-27T11:40:20;22.10;56.30
21348;DHT22;66030;53.582;9.746;2024-01-27T11:42:55;22.10;56.60
21348;DHT22;66030;53.582;9.746;2024-01-27T11:45:24;22.00;57.40
21348;DHT22;66030;53.582;9.746;2024-01-27T11:47:52;21.90;57.80
21348;DHT22;66030;53.582;9.746;2024-01-27T11:50:20;21.80;57.20
21348;DHT22;66030;53.582;9.746;2024-01-27T11:52:48;21.60;54.70
21348;DHT22;66030;53.582;9.746;2024-01-27T11:55:16;21.40;56.20
21348;DHT22;66030;53.582;9.746;2024-01-27T11:57:45;21.30;56.10
21348;DHT22;66030;53.582;9.746;2024-01-27T12:00:15;21.20;55.90
21348;DHT22;66030;53.582;9.746;2024-01-27T12:02:43;21.20;56.30
21348;DHT22;66030;53.582;9.746;2024-01-27T12:05:11;21.20;55.90
21348;DHT22;66030;53.582;9.746;2024-01-27T12:07:39;21.30;56.20
21348;DHT22;66030;53.582;9.746;2024-01-27T12:10:08;21.30;54.80
21348;DHT22;66030;53.582;9.746;2024-01-27T12:12:37;21.30;54.90
21348;DHT22;66030;53.582;9.746;2024-01-27T12:15:06;21.00;53.20
21348;DHT22;66030;53.582;9.746;2024-01-27T12:17:35;20.90;54.30
21348;DHT22;66030;53.582;9.746;2024-01-27T12:20:14;20.90;55.40
21348;DHT22;66030;53.582;9.746;2024-01-27T12:22:43;21.00;55.20
21348;DHT22;66030;53.582;9.746;2024-01-27T12:25:11;21.00;55.10
21348;DHT22;66030;53.582;9.746;2024-01-27T12:27:41;21.10;55.10
21348;DHT22;66030;53.582;9.746;2024-01-27T12:30:10;21.10;55.10
21348;DHT22;66030;53.582;9.746;2024-01-27T12:32:39;21.10;55.10
21348;DHT22;66030;53.582;9.746;2024-01-27T12:35:08;21.10;55.10
21348;DHT22;66030;53.582;9.746;2024-01-27T12:37:36;21.10;55.10
21348;DHT22;66030;53.582;9.746;2024-01-27T12:40:17;21.10;55.10
21348;DHT22;66030;53.582;9.746;2024-01-27T12:42:50;21.10;55.10
21348;DHT22;66030;53.582;9.746;2024-01-27T12:45:18;21.10;55.20
21348;DHT22;66030;53.582;9.746;2024-01-27T12:47:48;21.10;55.20
21348;DHT22;66030;53.582;9.746;2024-01-27T12:50:16;21.10;55.30
21348;DHT22;66030;53.582;9.746;2024-01-27T12:52:44;21.10;55.30
21348;DHT22;66030;53.582;9.746;2024-01-27T12:55:12;21.10;55.30
21348;DHT22;66030;53.582;9.746;2024-01-27T12:57:40;21.10;55.40
21348;DHT22;66030;53.582;9.746;2024-01-27T13:00:08;21.10;55.40
21348;DHT22;66030;53.582;9.746;2024-01-27T13:02:37;21.10;55.50
21348;DHT22;66030;53.582;9.746;2024-01-27T13:05:07;21.10;55.50
21348;DHT22;66030;53.582;9.746;2024-01-27T13:07:36;21.10;55.50
21348;DHT22;66030;53.582;9.746;2024-01-27T13:10:04;21.10;55.60
21348;DHT22;66030;53.582;9.746;2024-01-27T13:12:32;21.10;55.60
21348;DHT22;66030;53.582;9.746;2024-01-27T13:15:00;21.00;55.70
21348;DHT22;66030;53.582;9.746;2024-01-27T13:17:28;21.10;55.60
21348;DHT22;66030;53.582;9.746;2024-01-27T13:19:56;21.10;55.70
21348;DHT22;66030;53.582;9.746;2024-01-27T13:22:25;21.00;55.70
21348;DHT22;66030;53.582;9.746;2024-01-27T13:24:53;21.00;55.80
21348;DHT22;66030;53.582;9.746;2024-01-27T13:27:21;21.00;55.80
21348;DHT22;66030;53.582;9.746;2024-01-27T13:29:49;21.00;55.80
21348;DHT22;66030;53.582;9.746;2024-01-27T13:32:17;21.00;55.80
21348;DHT22;66030;53.582;9.746;2024-01-27T13:34:44;21.00;55.80
21348;DHT22;66030;53.582;9.746;2024-01-27T13:37:12;21.00;55.90
21348;DHT22;66030;53.582;9.746;2024-01-27T13:39:43;21.00;55.90
21348;DHT22;66030;53.582;9.746;2024-01-27T13:42:12;21.00;55.90
21348;DHT22;66030;53.582;9.746;2024-01-27T13:44:39;21.00;55.90
21348;DHT22;66030;53.582;9.746;2024-01-27T13:47:07;21.00;55.90
21348;DHT22;66030;53.582;9.746;2024-01-27T13:49:36;21.00;55.90
21348;DHT22;66030;53.582;9.746;2024-01-27T13:52:05;21.00;55.90
21348;DHT22;66030;53.582;9.746;2024-01-27T13:54:33;21.00;56.00
21348;DHT22;66030;53.582;9.746;2024-01-27T13:57:03;21.00;56.00
21348;DHT22;66030;53.582;9.746;2024-01-27T13:59:31;21.00;55.90
21348;DHT22;66030;53.582;9.746;2024-01-27T14:02:00;21.00;56.00
21348;DHT22;66030;53.582;9.746;2024-01-27T14:04:28;20.90;56.00
21348;DHT22;66030;53.582;9.746;2024-01-27T14:06:56;20.90;56.00
21348;DHT22;66030;53.582;9.746;2024-01-27T14:09:24;21.00;56.00
21348;DHT22;66030;53.582;9.746;2024-01-27T14:11:53;20.90;56.00
21348;DHT22;66030;53.582;9.746;2024-01-27T14:14:22;20.90;56.10
21348;DHT22;66030;53.582;9.746;2024-01-27T14:16:50;20.90;56.20
21348;DHT22;66030;53.582;9.746;2024-01-27T14:19:18;20.90;56.20
21348;DHT22;66030;53.582;9.746;2024-01-27T14:21:46;21.00;56.10
21348;DHT22;66030;53.582;9.746;2024-01-27T14:24:15;20.90;56.20
21348;DHT22;66030;53.582;9.746;2024-01-27T14:26:43;20.90;56.20
21348;DHT22;66030;53.582;9.746;2024-01-27T14:29:11;20.90;56.20
21348;DHT22;66030;53.582;9.746;2024-01-27T14:31:40;20.90;56.20
21348;DHT22;66030;53.582;9.746;2024-01-27T14:34:08;20.90;56.20
21348;DHT22;66030;53.582;9.746;2024-01-27T14:36:36;20.90;56.20
21348;DHT22;66030;53.582;9.746;2024-01-27T14:39:05;20.90;56.20
21348;DHT22;66030;53.582;9.746;2024-01-27T14:41:37;20.90;56.20
21348;DHT22;66030;53.582;9.746;2024-01-27T14:44:05;20.90;56.20
21348;DHT22;66030;53.582;9.746;2024-01-27T14:46:33;20.90;56.20
21348;DHT22;66030;53.582;9.746;2024-01-27T14:49:08;20.80;56.20
21348;DHT22;66030;53.582;9.746;2024-01-27T14:51:36;20.80;56.20
21348;DHT22;66030;53.582;9.746;2024-01-27T14:54:04;20.80;56.20
21348;DHT22;66030;53.582;9.746;2024-01-27T14:56:33;20.80;56.20
21348;DHT22;66030;53.582;9.746;2024-01-27T14:59:00;20.80;56.20
21348;DHT22;66030;53.582;9.746;2024-01-27T15:01:28;20.80;56.20
21348;DHT22;66030;53.582;9.746;2024-01-27T15:03:56;20.80;56.20
21348;DHT22;66030;53.582;9.746;2024-01-27T15:06:25;20.80;56.20
21348;DHT22;66030;53.582;9.746;2024-01-27T15:08:53;20.80;56.20
21348;DHT22;66030;53.582;9.746;2024-01-27T15:11:21;20.80;56.20
21348;DHT22;66030;53.582;9.746;2024-01-27T15:13:49;20.80;56.20
21348;DHT22;66030;53.582;9.746;2024-01-27T15:16:17;20.70;56.20
21348;DHT22;66030;53.582;9.746;2024-01-27T15:18:45;20.70;56.20
21348;DHT22;66030;53.582;9.746;2024-01-27T15:21:13;20.70;56.30
21348;DHT22;66030;53.582;9.746;2024-01-27T15:23:42;20.70;56.20
21348;DHT22;66030;53.582;9.746;2024-01-27T15:26:10;20.70;56.30
21348;DHT22;66030;53.582;9.746;2024-01-27T15:28:38;20.70;56.20
21348;DHT22;66030;53.582;9.746;2024-01-27T15:31:06;20.70;56.20
21348;DHT22;66030;53.582;9.746;2024-01-27T15:33:34;20.70;56.30
21348;DHT22;66030;53.582;9.746;2024-01-27T15:36:04;20.70;56.30
21348;DHT22;66030;53.582;9.746;2024-01-27T15:38:33;20.70;56.30